Time;durP1;ratioP1;P1;durP2;ratioP2;P2;SDS_P1;SDS_P2;PMS_P1;PMS_P2;Temp;Humidity;BMP_temperature;BMP_pressure;BME280_temperature;BME280_humidity;BME280_pressure;Samples;Min_cycle;Max_cycle;Signal;HPM_P1;HPM_P2
2022/03/08 00:02:22;;;;;;;12.30;6.03;;;1.90;99.90;;;;;;5071096;28;20044;-66
2022/03/08 00:04:47;;;;;;;11.52;6.40;;;1.90;99.90;;;;;;5075650;28;20091;-65
2022/03/08 00:07:13;;;;;;;12.52;6.03;;;1.80;99.90;;;;;;5071817;28;20040;-64
2022/03/08 00:09:39;;;;;;;10.70;6.05;;;1.80;99.90;;;;;;5073109;28;20044;-62
2022/03/08 00:12:05;;;;;;;12.48;6.35;;;1.70;99.90;;;;;;5074127;28;20033;-63
2022/03/08 00:14:32;;;;;;;12.23;5.75;;;1.70;99.90;;;;;;5070604;28;20040;-62
2022/03/08 00:16:57;;;;;;;11.48;5.82;;;1.70;99.90;;;;;;5072730;28;20109;-64
2022/03/08 00:19:23;;;;;;;11.07;5.95;;;1.60;99.90;;;;;;5072423;28;20044;-64
2022/03/08 00:21:48;;;;;;;10.45;6.15;;;1.60;99.90;;;;;;5075516;28;20418;-64
2022/03/08 00:24:16;;;;;;;11.15;6.20;;;1.60;99.90;;;;;;5074455;28;20039;-64
2022/03/08 00:26:41;;;;;;;12.68;6.45;;;1.60;99.90;;;;;;5066822;28;20485;-62
2022/03/08 00:29:07;;;;;;;12.35;6.70;;;1.60;99.90;;;;;;5060225;28;20127;-62
2022/03/08 00:31:32;;;;;;;14.23;7.20;;;1.60;99.90;;;;;;5076943;28;20040;-64
2022/03/08 00:33:58;;;;;;;12.73;6.55;;;1.60;99.90;;;;;;5056515;28;20385;-62
2022/03/08 00:36:24;;;;;;;12.80;6.75;;;1.60;99.90;;;;;;5074376;28;20186;-64
2022/03/08 00:38:49;;;;;;;12.90;6.35;;;1.60;99.90;;;;;;5082190;28;20040;-63
2022/03/08 00:41:16;;;;;;;13.65;6.55;;;1.60;99.90;;;;;;5078429;28;20245;-62
2022/03/08 00:43:41;;;;;;;10.88;5.97;;;1.60;99.90;;;;;;5083321;28;20075;-63
2022/03/08 00:46:07;;;;;;;12.07;6.68;;;1.60;99.90;;;;;;5105538;28;20486;-62
2022/03/08 00:48:32;;;;;;;14.43;6.93;;;1.60;99.90;;;;;;5078367;28;20394;-64
2022/03/08 00:50:58;;;;;;;11.52;6.60;;;1.60;99.90;;;;;;5076051;28;20039;-63
2022/03/08 00:53:24;;;;;;;13.93;6.72;;;1.60;99.90;;;;;;5072556;28;20415;-63
2022/03/08 00:55:49;;;;;;;13.63;6.70;;;1.60;99.90;;;;;;5074210;28;20036;-63
2022/03/08 00:58:15;;;;;;;13.80;6.60;;;1.60;99.90;;;;;;5074593;28;20174;-63
2022/03/08 01:00:41;;;;;;;13.27;7.25;;;1.60;99.90;;;;;;5075014;28;20040;-64
2022/03/08 01:03:07;;;;;;;14.02;6.60;;;1.60;99.90;;;;;;5073144;28;20055;-63
2022/03/08 01:05:33;;;;;;;12.52;6.95;;;1.60;99.90;;;;;;5106434;28;20044;-63
2022/03/08 01:08:00;;;;;;;15.02;7.60;;;1.50;99.90;;;;;;5070260;28;20072;-63
2022/03/08 01:10:26;;;;;;;11.27;6.68;;;1.50;99.90;;;;;;5075293;28;20151;-63
2022/03/08 01:12:53;;;;;;;13.00;6.90;;;1.50;99.90;;;;;;5076969;28;20042;-62
2022/03/08 01:15:21;;;;;;;12.90;7.05;;;1.50;99.90;;;;;;5074451;28;20047;-63
2022/03/08 01:17:47;;;;;;;14.50;7.55;;;1.50;99.90;;;;;;5070738;28;20048;-63
2022/03/08 01:20:13;;;;;;;11.93;7.13;;;1.40;99.90;;;;;;5071282;28;20039;-64
2022/03/08 01:22:39;;;;;;;11.85;6.40;;;1.40;99.90;;;;;;5071854;28;20036;-64
2022/03/08 01:25:06;;;;;;;12.25;7.13;;;1.40;99.90;;;;;;5071550;28;20056;-63
2022/03/08 01:27:31;;;;;;;11.00;6.70;;;1.30;99.90;;;;;;5075689;28;20667;-62
2022/03/08 01:29:57;;;;;;;11.60;6.55;;;1.30;99.90;;;;;;5075129;28;20059;-62
2022/03/08 01:32:22;;;;;;;14.50;7.53;;;1.30;99.90;;;;;;5074735;28;20041;-64
2022/03/08 01:34:48;;;;;;;12.48;7.30;;;1.20;99.90;;;;;;5070340;28;20123;-64
2022/03/08 01:37:14;;;;;;;11.88;7.07;;;1.20;99.90;;;;;;5073456;28;20062;-63
2022/03/08 01:39:39;;;;;;;15.18;7.20;;;1.20;99.90;;;;;;5075349;28;20050;-62
2022/03/08 01:42:14;;;;;;;12.88;7.28;;;1.10;99.90;;;;;;5075408;28;20055;-64
2022/03/08 01:44:45;;;;;;;13.15;7.10;;;1.10;99.90;;;;;;5086988;28;20055;-63
2022/03/08 01:47:15;;;;;;;12.25;7.25;;;1.00;99.90;;;;;;5081690;28;20539;-63
2022/03/08 01:49:41;;;;;;;13.30;7.60;;;0.90;99.90;;;;;;5074203;28;20399;-63
2022/03/08 01:52:07;;;;;;;12.68;7.32;;;0.90;99.90;;;;;;5083711;28;20154;-63
2022/03/08 01:54:33;;;;;;;12.52;6.63;;;0.90;99.90;;;;;;5084312;28;20044;-62
2022/03/08 01:56:59;;;;;;;14.80;6.93;;;0.80;99.90;;;;;;5081851;28;20045;-63
2022/03/08 01:59:24;;;;;;;13.60;7.03;;;0.80;99.90;;;;;;5086687;28;20048;-61
2022/03/08 02:01:50;;;;;;;13.77;7.22;;;0.80;99.90;;;;;;5078504;28;20041;-63
2022/03/08 02:04:16;;;;;;;12.30;7.40;;;0.80;99.90;;;;;;5078954;28;20366;-62
2022/03/08 02:06:44;;;;;;;12.30;7.13;;;0.80;99.90;;;;;;5086092;28;20119;-64
2022/03/08 02:09:10;;;;;;;12.52;7.35;;;0.70;99.90;;;;;;5083869;28;20078;-62
2022/03/08 02:11:36;;;;;;;15.18;7.80;;;0.70;99.90;;;;;;5084910;28;20140;-64
2022/03/08 02:14:02;;;;;;;14.10;7.55;;;0.70;99.90;;;;;;5090750;28;20579;-62
2022/03/08 02:16:28;;;;;;;15.60;7.88;;;0.70;99.90;;;;;;5087285;28;20063;-64
2022/03/08 02:18:54;;;;;;;13.23;7.82;;;0.70;99.90;;;;;;5085293;28;20341;-63
2022/03/08 02:21:19;;;;;;;15.15;7.85;;;0.70;99.90;;;;;;5079264;28;20056;-64
2022/03/08 02:23:45;;;;;;;13.88;7.68;;;0.70;99.90;;;;;;5069289;28;20109;-64
2022/03/08 02:26:10;;;;;;;12.73;7.50;;;0.60;99.90;;;;;;5073768;28;20182;-64
2022/03/08 02:28:37;;;;;;;15.10;7.78;;;0.60;99.90;;;;;;5085113;28;20452;-63
2022/03/08 02:31:03;;;;;;;14.57;7.63;;;0.60;99.90;;;;;;5082152;28;20512;-63
2022/03/08 02:33:28;;;;;;;15.90;8.52;;;0.60;99.90;;;;;;5079853;28;20045;-66
2022/03/08 02:35:54;;;;;;;14.80;8.13;;;0.50;99.90;;;;;;5073582;28;20233;-64
2022/03/08 02:38:20;;;;;;;15.23;8.25;;;0.50;99.90;;;;;;5084613;28;20040;-63
2022/03/08 02:40:45;;;;;;;14.60;8.25;;;0.50;99.90;;;;;;5079545;28;20896;-62
2022/03/08 02:43:12;;;;;;;15.98;8.35;;;0.50;99.90;;;;;;5111803;27;20118;-64
2022/03/08 02:45:38;;;;;;;14.63;8.10;;;0.40;99.90;;;;;;5073719;28;20059;-63
2022/03/08 02:48:04;;;;;;;18.60;8.68;;;0.40;99.90;;;;;;5082640;28;20036;-62
2022/03/08 02:50:30;;;;;;;15.70;8.52;;;0.40;99.90;;;;;;5079133;28;20036;-62
2022/03/08 02:52:57;;;;;;;19.75;8.32;;;0.40;99.90;;;;;;5080522;28;20032;-63
2022/03/08 02:55:26;;;;;;;17.98;8.60;;;0.40;99.90;;;;;;5080086;28;20101;-63
2022/03/08 02:57:53;;;;;;;13.63;8.35;;;0.40;99.90;;;;;;5081752;28;20050;-65
2022/03/08 03:00:20;;;;;;;15.55;8.98;;;0.40;99.90;;;;;;5073771;28;20109;-62
2022/03/08 03:02:47;;;;;;;17.00;9.02;;;0.50;99.90;;;;;;5074698;28;20040;-62
2022/03/08 03:05:13;;;;;;;14.60;8.65;;;0.40;99.90;;;;;;5079216;28;20128;-63
2022/03/08 03:07:39;;;;;;;15.80;9.40;;;0.40;99.90;;;;;;5073669;28;20162;-64
2022/03/08 03:10:12;;;;;;;17.30;9.52;;;0.40;99.90;;;;;;5075987;28;20852;-63
2022/03/08 03:12:38;;;;;;;16.10;8.70;;;0.40;99.90;;;;;;5076799;28;20043;-63
2022/03/08 03:15:06;;;;;;;15.38;9.20;;;0.50;99.90;;;;;;5071022;28;20040;-63
2022/03/08 03:17:32;;;;;;;15.90;8.82;;;0.40;99.90;;;;;;5072943;28;20510;-62
2022/03/08 03:19:57;;;;;;;18.92;9.90;;;0.50;99.90;;;;;;5074775;28;20044;-64
2022/03/08 03:22:23;;;;;;;15.70;9.25;;;0.50;99.90;;;;;;5072307;28;20410;-64
2022/03/08 03:24:48;;;;;;;15.35;8.80;;;0.50;99.90;;;;;;5076357;28;20119;-63
2022/03/08 03:27:14;;;;;;;16.45;9.32;;;0.50;99.90;;;;;;5075030;28;20052;-63
2022/03/08 03:29:40;;;;;;;14.85;9.40;;;0.50;99.90;;;;;;5072407;28;20149;-64
2022/03/08 03:32:06;;;;;;;16.10;9.23;;;0.50;99.90;;;;;;5074044;28;20565;-63
2022/03/08 03:34:31;;;;;;;15.90;10.15;;;0.50;99.90;;;;;;5073866;28;20040;-65
2022/03/08 03:36:57;;;;;;;16.45;8.82;;;0.50;99.90;;;;;;5075094;28;20442;-63
2022/03/08 03:39:23;;;;;;;14.73;8.98;;;0.50;99.90;;;;;;5074315;28;20445;-64
2022/03/08 03:41:48;;;;;;;16.70;9.50;;;0.50;99.90;;;;;;5070060;28;20099;-63
2022/03/08 03:44:14;;;;;;;16.63;9.90;;;0.50;99.90;;;;;;5076227;28;20331;-62
2022/03/08 03:46:39;;;;;;;17.08;9.93;;;0.40;99.90;;;;;;5075090;28;20044;-62
2022/03/08 03:49:05;;;;;;;15.27;9.50;;;0.50;99.90;;;;;;5075096;28;20040;-61
2022/03/08 03:51:31;;;;;;;15.68;9.35;;;0.50;99.90;;;;;;5074319;28;20558;-63
2022/03/08 03:53:56;;;;;;;18.15;10.23;;;0.50;99.90;;;;;;5075694;28;20040;-63
2022/03/08 03:56:22;;;;;;;18.65;10.23;;;0.50;99.90;;;;;;5074965;28;20040;-62
2022/03/08 03:58:47;;;;;;;19.88;10.55;;;0.50;99.90;;;;;;5075807;28;20050;-63
2022/03/08 04:01:13;;;;;;;17.70;10.00;;;0.50;99.90;;;;;;5078369;28;20143;-62
2022/03/08 04:03:38;;;;;;;17.13;9.88;;;0.50;99.90;;;;;;5074625;28;20372;-61
2022/03/08 04:06:05;;;;;;;23.63;10.20;;;0.40;99.90;;;;;;5075173;28;20094;-63
2022/03/08 04:08:31;;;;;;;16.83;9.98;;;0.50;99.90;;;;;;5083564;28;20048;-61
2022/03/08 04:10:56;;;;;;;17.15;10.35;;;0.50;99.90;;;;;;5077201;28;20105;-63
2022/03/08 04:13:22;;;;;;;17.08;10.73;;;0.40;99.90;;;;;;5083566;28;20158;-63
2022/03/08 04:15:48;;;;;;;17.35;10.18;;;0.40;99.90;;;;;;5075464;28;20155;-63
2022/03/08 04:18:14;;;;;;;17.50;9.88;;;0.50;99.90;;;;;;5070086;28;20068;-62
2022/03/08 04:20:40;;;;;;;17.73;10.20;;;0.40;99.90;;;;;;5069757;28;20040;-62
2022/03/08 04:23:05;;;;;;;19.27;10.05;;;0.40;99.90;;;;;;5069940;28;20459;-62
2022/03/08 04:25:31;;;;;;;15.70;10.02;;;0.40;99.90;;;;;;5071825;28;20047;-65
2022/03/08 04:27:57;;;;;;;18.05;10.40;;;0.40;99.90;;;;;;5074178;28;20062;-63
2022/03/08 04:30:22;;;;;;;19.23;10.10;;;0.40;99.90;;;;;;5071598;28;20223;-65
2022/03/08 04:32:50;;;;;;;16.90;10.55;;;0.40;99.90;;;;;;5074273;28;20082;-63
2022/03/08 04:35:17;;;;;;;18.02;10.35;;;0.40;99.90;;;;;;5071745;28;20039;-63
2022/03/08 04:37:42;;;;;;;21.25;10.88;;;0.40;99.90;;;;;;5086893;28;20047;-63
2022/03/08 04:40:09;;;;;;;18.77;10.85;;;0.40;99.90;;;;;;5081907;28;20161;-65
2022/03/08 04:42:35;;;;;;;17.85;10.27;;;0.30;99.90;;;;;;5071748;28;20041;-62
2022/03/08 04:45:01;;;;;;;19.25;11.18;;;0.30;99.90;;;;;;5073290;28;20189;-64
2022/03/08 04:47:26;;;;;;;17.73;9.95;;;0.30;99.90;;;;;;5074792;28;21733;-63
2022/03/08 04:49:52;;;;;;;20.23;11.00;;;0.30;99.90;;;;;;5077920;28;20381;-65
2022/03/08 04:52:17;;;;;;;16.90;10.15;;;0.30;99.90;;;;;;5074027;28;20495;-62
2022/03/08 04:54:43;;;;;;;19.10;11.23;;;0.30;99.90;;;;;;5072893;28;20048;-64
2022/03/08 04:57:08;;;;;;;17.33;9.93;;;0.30;99.90;;;;;;5076798;28;20743;-63
2022/03/08 04:59:34;;;;;;;18.83;10.48;;;0.30;99.90;;;;;;5072011;28;20048;-62
2022/03/08 05:01:59;;;;;;;18.08;10.23;;;0.30;99.90;;;;;;5074735;28;20040;-64
2022/03/08 05:04:25;;;;;;;17.65;10.13;;;0.20;99.90;;;;;;5070340;28;20044;-62
2022/03/08 05:06:50;;;;;;;18.65;10.75;;;0.30;99.90;;;;;;5071515;28;20040;-63
2022/03/08 05:09:17;;;;;;;18.65;10.90;;;0.30;99.90;;;;;;5073949;28;20060;-64
2022/03/08 05:11:42;;;;;;;19.95;11.57;;;0.30;99.90;;;;;;5074414;28;20044;-64
2022/03/08 05:14:08;;;;;;;16.58;10.75;;;0.30;99.90;;;;;;5075980;28;20133;-62
2022/03/08 05:16:34;;;;;;;18.27;10.95;;;0.30;99.90;;;;;;5079388;28;20451;-62
2022/03/08 05:19:00;;;;;;;16.38;10.15;;;0.30;99.90;;;;;;5081316;28;20044;-63
2022/03/08 05:21:25;;;;;;;18.63;11.10;;;0.30;99.90;;;;;;5075768;28;20042;-62
2022/03/08 05:23:51;;;;;;;17.75;10.55;;;0.30;99.90;;;;;;5076391;28;20189;-62
2022/03/08 05:26:17;;;;;;;18.67;10.38;;;0.30;99.90;;;;;;5077240;28;20052;-62
2022/03/08 05:28:46;;;;;;;16.77;10.23;;;0.30;99.90;;;;;;5076890;28;20094;-62
2022/03/08 05:31:13;;;;;;;16.83;10.60;;;0.30;99.90;;;;;;5081535;28;20043;-62
2022/03/08 05:33:39;;;;;;;17.13;10.88;;;0.30;99.90;;;;;;5086713;28;20040;-63
2022/03/08 05:36:05;;;;;;;17.95;11.00;;;0.30;99.90;;;;;;5079715;28;20047;-63
2022/03/08 05:38:31;;;;;;;16.60;10.70;;;0.30;99.90;;;;;;5076767;28;20504;-64
2022/03/08 05:40:57;;;;;;;20.58;11.02;;;0.30;99.90;;;;;;5113556;27;20139;-62
2022/03/08 05:43:22;;;;;;;16.85;10.52;;;0.40;99.90;;;;;;5086184;28;20147;-64
2022/03/08 05:45:48;;;;;;;19.15;11.43;;;0.30;99.90;;;;;;5080742;28;20136;-62
2022/03/08 05:48:14;;;;;;;17.80;10.63;;;0.30;99.90;;;;;;5082019;28;20131;-65
2022/03/08 05:50:39;;;;;;;19.15;10.75;;;0.30;99.90;;;;;;5085061;28;20123;-64
2022/03/08 05:53:05;;;;;;;17.45;10.30;;;0.30;99.90;;;;;;5081481;28;20048;-63
2022/03/08 05:55:31;;;;;;;19.38;11.18;;;0.30;99.90;;;;;;5087308;28;20071;-62
2022/03/08 05:57:56;;;;;;;19.52;11.40;;;0.30;99.90;;;;;;5088220;28;20053;-62
2022/03/08 06:00:22;;;;;;;18.25;11.20;;;0.30;99.90;;;;;;5085816;28;20036;-63
2022/03/08 06:02:48;;;;;;;21.88;11.35;;;0.30;99.90;;;;;;5088093;28;20141;-64
2022/03/08 06:05:13;;;;;;;18.05;11.27;;;0.30;99.90;;;;;;5088890;28;20127;-63
2022/03/08 06:07:39;;;;;;;16.48;10.50;;;0.30;99.90;;;;;;5083452;28;20064;-63
2022/03/08 06:10:07;;;;;;;17.33;10.75;;;0.30;99.90;;;;;;5085813;28;20151;-62
2022/03/08 06:12:33;;;;;;;17.90;11.27;;;0.30;99.90;;;;;;5072420;28;20529;-63
2022/03/08 06:14:59;;;;;;;20.30;11.52;;;0.30;99.90;;;;;;5091306;28;20189;-63
2022/03/08 06:17:24;;;;;;;19.02;10.98;;;0.30;99.90;;;;;;5089222;28;20152;-63
2022/03/08 06:19:50;;;;;;;18.38;11.80;;;0.30;99.90;;;;;;5088687;28;20044;-63
2022/03/08 06:22:15;;;;;;;17.25;11.48;;;0.30;99.90;;;;;;5089668;28;20339;-64
2022/03/08 06:24:41;;;;;;;17.10;11.00;;;0.30;99.90;;;;;;5085666;28;20040;-64
2022/03/08 06:27:07;;;;;;;18.77;10.95;;;0.40;99.90;;;;;;5089309;28;20040;-67
2022/03/08 06:29:32;;;;;;;17.48;11.05;;;0.40;99.90;;;;;;5081924;28;20116;-63
2022/03/08 06:31:58;;;;;;;16.83;11.38;;;0.40;99.90;;;;;;5089981;28;20047;-65
2022/03/08 06:34:24;;;;;;;19.45;10.52;;;0.40;99.90;;;;;;5087503;28;20100;-63
2022/03/08 06:36:49;;;;;;;17.60;10.80;;;0.40;99.90;;;;;;5085841;28;20382;-64
2022/03/08 06:39:15;;;;;;;17.48;11.50;;;0.40;99.90;;;;;;5082570;28;20047;-64
2022/03/08 06:41:41;;;;;;;18.15;10.98;;;0.50;99.90;;;;;;5088353;28;20047;-63
2022/03/08 06:44:08;;;;;;;19.08;11.10;;;0.50;99.90;;;;;;5073205;28;20056;-63
2022/03/08 06:46:33;;;;;;;18.38;11.30;;;0.50;99.90;;;;;;5079943;28;20151;-63
2022/03/08 06:48:59;;;;;;;16.95;10.57;;;0.50;99.90;;;;;;5089490;28;20309;-63
2022/03/08 06:51:25;;;;;;;20.42;12.05;;;0.60;99.90;;;;;;5070735;28;20401;-65
2022/03/08 06:53:51;;;;;;;17.65;11.02;;;0.60;99.90;;;;;;5084317;28;20044;-63
2022/03/08 06:56:17;;;;;;;18.48;11.10;;;0.60;99.90;;;;;;5089104;28;20040;-63
2022/03/08 06:58:43;;;;;;;18.38;11.68;;;0.70;99.90;;;;;;5080995;28;20044;-62
2022/03/08 07:01:08;;;;;;;20.00;11.20;;;0.80;99.90;;;;;;5075674;28;20477;-63
2022/03/08 07:03:34;;;;;;;17.98;11.25;;;0.70;99.90;;;;;;5071881;28;20477;-63
2022/03/08 07:05:59;;;;;;;14.88;9.75;;;0.70;99.90;;;;;;5067025;28;20048;-64
2022/03/08 07:08:25;;;;;;;16.85;10.60;;;0.70;99.90;;;;;;5078909;28;20040;-65
2022/03/08 07:10:50;;;;;;;17.60;10.98;;;0.80;99.90;;;;;;5087696;28;20085;-62
2022/03/08 07:13:16;;;;;;;17.63;10.65;;;0.80;99.90;;;;;;5088621;28;20032;-62
2022/03/08 07:15:41;;;;;;;17.13;10.40;;;0.80;99.90;;;;;;5089708;28;20032;-62
2022/03/08 07:18:08;;;;;;;17.83;10.65;;;0.80;99.90;;;;;;5090524;28;20036;-62
2022/03/08 07:20:33;;;;;;;18.00;11.00;;;0.90;99.90;;;;;;5070022;28;20056;-62
2022/03/08 07:22:59;;;;;;;17.33;10.90;;;0.90;99.90;;;;;;5080860;28;20040;-63
2022/03/08 07:25:25;;;;;;;17.08;10.98;;;0.90;99.90;;;;;;5086805;28;20193;-63
2022/03/08 07:27:50;;;;;;;16.40;10.82;;;1.00;99.90;;;;;;5089580;28;20444;-64
2022/03/08 07:30:16;;;;;;;16.48;11.15;;;1.00;99.90;;;;;;5089589;28;20040;-64
2022/03/08 07:32:42;;;;;;;16.35;10.85;;;1.10;99.90;;;;;;5078765;28;20127;-65
2022/03/08 07:35:08;;;;;;;16.52;10.75;;;1.10;99.90;;;;;;5071806;28;20044;-65
2022/03/08 07:37:35;;;;;;;20.67;11.23;;;1.20;99.90;;;;;;5088885;28;20109;-64
2022/03/08 07:40:04;;;;;;;14.73;10.50;;;1.20;99.90;;;;;;5088586;28;20055;-63
2022/03/08 07:42:30;;;;;;;16.95;10.27;;;1.30;99.90;;;;;;5078060;28;20358;-63
2022/03/08 07:44:55;;;;;;;14.55;9.80;;;1.30;99.90;;;;;;5069118;28;20527;-64
2022/03/08 07:47:21;;;;;;;16.33;10.88;;;1.40;99.90;;;;;;5069179;28;20056;-64
2022/03/08 07:49:46;;;;;;;16.45;10.55;;;1.40;99.90;;;;;;5067115;28;20166;-63
2022/03/08 07:52:13;;;;;;;15.88;9.52;;;1.40;99.90;;;;;;5085331;28;20047;-64
2022/03/08 07:54:38;;;;;;;18.33;10.02;;;1.50;99.90;;;;;;5087646;28;20522;-64
2022/03/08 07:57:04;;;;;;;15.88;10.48;;;1.50;99.90;;;;;;5088308;28;20047;-64
2022/03/08 07:59:30;;;;;;;17.90;10.95;;;1.60;99.90;;;;;;5070793;28;20501;-63
2022/03/08 08:01:56;;;;;;;15.85;10.40;;;1.60;99.90;;;;;;5084016;28;20193;-63
2022/03/08 08:04:23;;;;;;;16.35;10.43;;;1.70;99.90;;;;;;5074140;28;20048;-63
2022/03/08 08:06:48;;;;;;;19.80;10.30;;;1.70;99.90;;;;;;5103681;27;20040;-64
2022/03/08 08:09:14;;;;;;;16.02;10.25;;;1.80;99.90;;;;;;5067407;28;20052;-64
2022/03/08 08:11:39;;;;;;;14.07;9.15;;;1.80;99.90;;;;;;5080977;28;20044;-64
2022/03/08 08:14:05;;;;;;;13.43;9.65;;;1.90;99.90;;;;;;5089026;28;20438;-64
2022/03/08 08:16:30;;;;;;;15.70;9.95;;;1.90;99.90;;;;;;5087659;28;20466;-63
2022/03/08 08:18:58;;;;;;;14.65;10.10;;;2.00;99.90;;;;;;5084113;28;20363;-64
2022/03/08 08:21:24;;;;;;;14.73;9.35;;;2.00;99.90;;;;;;5082412;28;20053;-64
2022/03/08 08:23:49;;;;;;;13.27;9.40;;;2.10;99.90;;;;;;5082408;28;20028;-64
2022/03/08 08:26:15;;;;;;;12.75;9.02;;;2.20;99.90;;;;;;5087292;28;20528;-62
2022/03/08 08:28:41;;;;;;;16.00;9.68;;;2.30;99.90;;;;;;5077220;28;20048;-63
2022/03/08 08:31:07;;;;;;;15.10;9.07;;;2.40;99.90;;;;;;5066046;28;20438;-63
2022/03/08 08:33:32;;;;;;;13.82;8.88;;;2.50;99.90;;;;;;5086577;28;20044;-65
2022/03/08 08:35:58;;;;;;;13.75;9.38;;;2.60;99.90;;;;;;5088011;28;20075;-64
2022/03/08 08:38:23;;;;;;;13.57;8.57;;;2.70;99.90;;;;;;5087021;28;20123;-63
2022/03/08 08:40:49;;;;;;;14.23;9.23;;;2.70;99.90;;;;;;5087039;28;20473;-62
2022/03/08 08:43:15;;;;;;;13.80;9.30;;;2.80;99.90;;;;;;5085284;28;20040;-62
2022/03/08 08:45:40;;;;;;;11.82;8.40;;;2.90;99.90;;;;;;5084663;28;20048;-62
2022/03/08 08:48:07;;;;;;;13.43;9.00;;;3.00;99.90;;;;;;5087068;28;20112;-63
2022/03/08 08:50:34;;;;;;;13.88;8.95;;;3.10;99.90;;;;;;5086199;28;20346;-63
2022/03/08 08:53:00;;;;;;;13.82;8.70;;;3.20;99.90;;;;;;5082410;28;20047;-64
2022/03/08 08:55:26;;;;;;;12.50;8.73;;;3.30;99.90;;;;;;5087696;28;20048;-63
2022/03/08 08:57:51;;;;;;;13.13;8.10;;;3.40;99.90;;;;;;5087811;28;20044;-64
2022/03/08 09:00:18;;;;;;;14.25;8.68;;;3.50;99.90;;;;;;5086441;28;20512;-65
2022/03/08 09:02:44;;;;;;;13.73;8.30;;;3.60;99.90;;;;;;5075646;28;20127;-64
2022/03/08 09:05:11;;;;;;;12.55;8.02;;;3.70;99.90;;;;;;5071063;28;20040;-66
2022/03/08 09:07:37;;;;;;;12.38;8.15;;;3.80;99.90;;;;;;5087764;28;20122;-64
2022/03/08 09:10:04;;;;;;;13.27;8.32;;;3.90;99.90;;;;;;5087378;28;20131;-64
2022/03/08 09:12:30;;;;;;;11.73;8.52;;;4.00;99.90;;;;;;5079837;28;20097;-63
2022/03/08 09:14:55;;;;;;;11.82;7.28;;;4.10;99.90;;;;;;5068389;28;20041;-63
2022/03/08 09:17:21;;;;;;;12.52;7.28;;;4.20;99.90;;;;;;5069381;28;20049;-65
2022/03/08 09:19:48;;;;;;;11.13;7.20;;;4.30;99.70;;;;;;5081731;28;20048;-63
2022/03/08 09:22:13;;;;;;;12.00;7.32;;;4.40;99.50;;;;;;5087058;28;20044;-63
2022/03/08 09:24:39;;;;;;;10.18;6.65;;;4.50;99.10;;;;;;5083963;28;20047;-63
2022/03/08 09:27:05;;;;;;;10.93;6.47;;;4.70;97.80;;;;;;5082929;28;20036;-64
2022/03/08 09:29:30;;;;;;;8.98;6.30;;;4.80;97.00;;;;;;5081234;28;20044;-62
2022/03/08 09:31:56;;;;;;;11.15;6.07;;;4.90;96.40;;;;;;5068054;28;20433;-63
2022/03/08 09:34:22;;;;;;;9.07;6.10;;;5.10;96.10;;;;;;5086225;28;20055;-65
2022/03/08 09:36:47;;;;;;;9.48;6.32;;;5.20;94.70;;;;;;5087001;28;20141;-64
2022/03/08 09:39:13;;;;;;;10.05;6.35;;;5.30;93.50;;;;;;5084549;28;20119;-63
2022/03/08 09:41:40;;;;;;;9.48;6.07;;;5.40;92.80;;;;;;5066626;28;20123;-63
2022/03/08 09:44:11;;;;;;;9.80;6.38;;;5.40;92.00;;;;;;5068660;28;20135;-63
2022/03/08 09:46:37;;;;;;;8.77;5.95;;;5.50;90.60;;;;;;5067443;28;20524;-63
2022/03/08 09:49:03;;;;;;;8.55;5.90;;;5.60;90.30;;;;;;5079084;28;20048;-65
2022/03/08 09:51:28;;;;;;;8.82;5.88;;;5.70;89.10;;;;;;5086387;28;20064;-67
2022/03/08 09:53:54;;;;;;;9.80;5.80;;;5.80;84.80;;;;;;5087221;28;20379;-63
2022/03/08 09:56:20;;;;;;;9.60;5.78;;;5.80;84.60;;;;;;5085141;28;20159;-63
2022/03/08 09:58:46;;;;;;;10.02;6.13;;;5.90;85.50;;;;;;5090515;28;20538;-62
2022/03/08 10:01:12;;;;;;;8.80;5.65;;;6.00;85.70;;;;;;5074191;28;20043;-62
2022/03/08 10:03:41;;;;;;;10.43;5.78;;;6.10;85.50;;;;;;5069969;28;20118;-63
2022/03/08 10:06:08;;;;;;;8.57;5.78;;;6.10;84.20;;;;;;5083793;28;20127;-63
2022/03/08 10:08:34;;;;;;;9.13;6.07;;;6.20;81.60;;;;;;5090260;28;20131;-64
2022/03/08 10:11:03;;;;;;;8.85;5.72;;;6.30;78.30;;;;;;5073502;28;20124;-64
2022/03/08 10:13:33;;;;;;;9.00;6.05;;;6.40;79.20;;;;;;5088700;28;20040;-64
2022/03/08 10:16:07;;;;;;;8.52;5.53;;;6.40;80.30;;;;;;5090453;28;20107;-63
2022/03/08 10:18:42;;;;;;;8.90;5.78;;;6.50;79.90;;;;;;5090300;28;20055;-63
2022/03/08 10:21:27;;;;;;;9.77;6.10;;;6.60;79.80;;;;;;5086974;28;20040;-64
2022/03/08 10:23:53;;;;;;;10.15;6.47;;;6.60;75.30;;;;;;5089846;28;20122;-65
2022/03/08 10:26:20;;;;;;;8.18;6.07;;;6.70;75.70;;;;;;5090110;28;20067;-64
2022/03/08 10:28:49;;;;;;;7.75;5.30;;;6.70;75.50;;;;;;5090623;28;20146;-64
2022/03/08 10:31:16;;;;;;;9.20;5.63;;;6.70;74.00;;;;;;5073157;28;20040;-63
2022/03/08 10:33:43;;;;;;;10.68;6.03;;;6.70;73.80;;;;;;5085549;28;20123;-64
2022/03/08 10:36:23;;;;;;;9.63;6.03;;;6.80;74.00;;;;;;5090259;28;20044;-64
2022/03/08 10:39:21;;;;;;;9.15;5.97;;;6.90;74.40;;;;;;5088457;28;20100;-64
2022/03/08 10:41:53;;;;;;;9.55;6.30;;;6.90;71.70;;;;;;5035722;28;20048;-63
2022/03/08 10:44:34;;;;;;;8.45;5.90;;;6.90;73.60;;;;;;5070295;28;20107;-63
2022/03/08 10:47:08;;;;;;;12.00;6.45;;;7.00;73.90;;;;;;5073875;28;20123;-64
2022/03/08 10:49:49;;;;;;;7.73;5.30;;;7.00;72.90;;;;;;5086948;28;20048;-64
2022/03/08 10:52:14;;;;;;;8.52;5.35;;;7.00;71.90;;;;;;5099608;27;20496;-67
2022/03/08 10:54:40;;;;;;;8.30;5.20;;;7.10;71.70;;;;;;5085997;28;20044;-64
2022/03/08 10:57:08;;;;;;;7.15;5.20;;;7.20;71.40;;;;;;5075962;28;20111;-63
2022/03/08 10:59:33;;;;;;;8.25;5.35;;;7.20;70.90;;;;;;5086068;28;20040;-64
2022/03/08 11:02:19;;;;;;;9.05;5.47;;;7.30;70.60;;;;;;5087715;28;20085;-64
2022/03/08 11:04:45;;;;;;;7.35;4.80;;;7.30;70.80;;;;;;5089216;28;20105;-64
2022/03/08 11:07:12;;;;;;;7.53;5.10;;;7.30;70.50;;;;;;5090247;28;20044;-64
2022/03/08 11:09:38;;;;;;;7.88;5.25;;;7.30;69.90;;;;;;5089777;28;20494;-64
2022/03/08 11:12:04;;;;;;;8.20;5.30;;;7.40;69.10;;;;;;5088129;28;20192;-63
2022/03/08 11:14:30;;;;;;;8.68;5.30;;;7.50;69.80;;;;;;5090315;28;20036;-65
2022/03/08 11:16:57;;;;;;;8.07;5.47;;;7.50;69.20;;;;;;5088570;28;20113;-65
2022/03/08 11:19:26;;;;;;;7.82;5.20;;;7.50;68.60;;;;;;5088211;28;20083;-65
2022/03/08 11:21:56;;;;;;;7.00;5.05;;;7.60;67.80;;;;;;5081248;28;20040;-65
2022/03/08 11:24:23;;;;;;;7.80;5.40;;;7.60;68.60;;;;;;5087486;28;20055;-65
2022/03/08 11:26:50;;;;;;;8.48;5.10;;;7.70;68.30;;;;;;5089877;28;20378;-63
2022/03/08 11:29:16;;;;;;;7.15;4.55;;;7.70;67.30;;;;;;5089357;28;20450;-64
2022/03/08 11:31:44;;;;;;;8.13;4.93;;;7.80;66.60;;;;;;5086003;28;20051;-65
2022/03/08 11:34:20;;;;;;;7.68;5.28;;;7.80;66.00;;;;;;5088171;28;20040;-64
2022/03/08 11:36:54;;;;;;;6.82;5.07;;;7.80;66.70;;;;;;5090041;28;20067;-63
2022/03/08 11:39:27;;;;;;;7.80;5.05;;;7.80;66.00;;;;;;5089454;28;20040;-65
2022/03/08 11:41:56;;;;;;;8.50;5.40;;;7.90;66.30;;;;;;5088904;28;20039;-64
2022/03/08 11:44:29;;;;;;;7.75;5.13;;;7.90;65.70;;;;;;5088896;28;20075;-64
2022/03/08 11:47:14;;;;;;;8.90;5.00;;;8.00;65.90;;;;;;5088222;28;20036;-64
2022/03/08 11:49:41;;;;;;;7.13;4.90;;;8.10;64.30;;;;;;5088028;28;20044;-64
2022/03/08 11:52:13;;;;;;;8.93;5.07;;;8.10;64.90;;;;;;5089517;28;20047;-64
2022/03/08 11:54:38;;;;;;;9.90;4.90;;;8.10;64.60;;;;;;5088776;28;20682;-65
2022/03/08 11:57:04;;;;;;;7.30;4.75;;;8.20;64.70;;;;;;5090194;28;20119;-64
2022/03/08 11:59:30;;;;;;;7.35;5.00;;;8.20;64.70;;;;;;5090643;28;20072;-63
2022/03/08 12:01:55;;;;;;;7.75;4.80;;;8.30;63.50;;;;;;5087731;28;20048;-66
2022/03/08 12:04:21;;;;;;;7.05;4.60;;;8.30;63.70;;;;;;5087963;28;20143;-65
2022/03/08 12:06:58;;;;;;;8.48;5.20;;;8.30;62.90;;;;;;5087472;28;20036;-63
2022/03/08 12:09:28;;;;;;;7.03;4.30;;;8.30;63.00;;;;;;5085758;28;20163;-64
2022/03/08 12:11:56;;;;;;;6.68;4.40;;;8.40;62.40;;;;;;5088211;28;20059;-64
2022/03/08 12:14:27;;;;;;;6.97;4.78;;;8.40;62.20;;;;;;5087443;28;20410;-65
2022/03/08 12:17:09;;;;;;;7.28;4.63;;;8.40;61.80;;;;;;5087043;28;20063;-65
2022/03/08 12:19:46;;;;;;;8.13;4.45;;;8.50;61.10;;;;;;5082886;28;20098;-64
2022/03/08 12:22:16;;;;;;;7.70;4.35;;;8.60;61.60;;;;;;5085311;28;20039;-64
2022/03/08 12:24:47;;;;;;;6.95;4.35;;;8.60;61.60;;;;;;5086202;28;20159;-64
2022/03/08 12:27:13;;;;;;;6.95;4.20;;;8.60;61.10;;;;;;5089797;28;20044;-64
2022/03/08 12:30:00;;;;;;;8.20;4.95;;;8.60;62.20;;;;;;5086745;28;20101;-64
2022/03/08 12:32:27;;;;;;;6.50;4.30;;;8.70;60.80;;;;;;5086361;28;20093;-64
2022/03/08 12:34:55;;;;;;;7.90;4.30;;;8.70;61.20;;;;;;5085575;28;20032;-64
2022/03/08 12:37:22;;;;;;;7.43;4.68;;;8.70;60.10;;;;;;5086899;28;20040;-64
2022/03/08 12:40:01;;;;;;;8.15;4.68;;;8.80;60.80;;;;;;5087629;28;20068;-65
2022/03/08 12:42:43;;;;;;;8.43;4.28;;;8.80;60.10;;;;;;5088459;28;20093;-64
2022/03/08 12:45:14;;;;;;;7.20;4.30;;;8.90;58.50;;;;;;5087765;28;20094;-65